Time;durP1;ratioP1;P1;durP2;ratioP2;P2;SDS_P1;SDS_P2;PMS_P1;PMS_P2;Temp;Humidity;BMP_temperature;BMP_pressure;BME280_temperature;BME280_humidity;BME280_pressure;Samples;Min_cycle;Max_cycle;Signal;HPM_P1;HPM_P2
2022/09/15 00:01:48;;;;;;;55.13;37.67;;;13.60;99.90;;;;;;5035329;28;20061;-54
2022/09/15 00:04:14;;;;;;;56.13;36.83;;;13.60;99.90;;;;;;5035774;28;20693;-54
2022/09/15 00:06:40;;;;;;;57.65;38.85;;;13.70;99.90;;;;;;5035454;28;20101;-55
2022/09/15 00:09:06;;;;;;;53.95;36.85;;;13.70;99.90;;;;;;5035753;28;20033;-53
2022/09/15 00:11:33;;;;;;;54.25;35.45;;;13.70;99.90;;;;;;5034989;28;20102;-54
2022/09/15 00:14:01;;;;;;;54.70;36.17;;;13.60;99.90;;;;;;5035146;28;20025;-54
2022/09/15 00:16:29;;;;;;;59.60;38.10;;;13.70;99.90;;;;;;5035534;28;20104;-54
2022/09/15 00:18:56;;;;;;;60.45;39.05;;;13.70;99.90;;;;;;5033904;28;20108;-54
2022/09/15 00:21:26;;;;;;;58.00;38.30;;;13.60;99.90;;;;;;5034886;28;20088;-54
2022/09/15 00:23:52;;;;;;;65.93;39.25;;;13.70;99.90;;;;;;5035320;28;20029;-54
2022/09/15 00:26:21;;;;;;;51.83;35.65;;;13.60;99.90;;;;;;5035154;28;20037;-54
2022/09/15 00:28:47;;;;;;;64.40;37.97;;;13.60;99.90;;;;;;5035350;28;20022;-54
2022/09/15 00:31:16;;;;;;;58.60;37.22;;;13.60;99.90;;;;;;5034960;28;20146;-54
2022/09/15 00:33:44;;;;;;;58.40;38.80;;;13.60;99.90;;;;;;5035030;28;20096;-53
2022/09/15 00:36:11;;;;;;;62.50;39.25;;;13.60;99.90;;;;;;5035097;28;20022;-53
2022/09/15 00:38:38;;;;;;;55.90;36.92;;;13.50;99.90;;;;;;5035070;28;20025;-54
2022/09/15 00:41:05;;;;;;;62.88;37.58;;;13.50;99.90;;;;;;5033914;28;20061;-54
2022/09/15 00:43:51;;;;;;;60.67;37.00;;;13.50;99.90;;;;;;5035216;28;20034;-54
2022/09/15 00:46:21;;;;;;;65.70;40.45;;;13.40;99.90;;;;;;5035344;28;20025;-54
2022/09/15 00:49:11;;;;;;;66.03;40.33;;;13.50;99.90;;;;;;5035178;28;20034;-54
2022/09/15 00:52:07;;;;;;;63.10;38.90;;;13.50;99.90;;;;;;5050276;28;20140;-54
2022/09/15 00:54:51;;;;;;;57.50;37.47;;;13.50;99.90;;;;;;5026579;28;20041;-54
2022/09/15 00:57:46;;;;;;;56.38;36.35;;;13.60;99.90;;;;;;5034552;28;20056;-54
2022/09/15 01:00:17;;;;;;;56.97;36.92;;;13.50;99.90;;;;;;5031790;28;20105;-53
2022/09/15 01:02:45;;;;;;;59.10;37.08;;;13.50;99.90;;;;;;5034836;28;20072;-54
2022/09/15 01:05:24;;;;;;;57.03;37.00;;;13.60;99.90;;;;;;5034661;28;20403;-53
2022/09/15 01:08:02;;;;;;;54.47;36.53;;;13.60;99.90;;;;;;5034829;28;20030;-54
2022/09/15 01:10:32;;;;;;;56.88;36.75;;;13.60;99.90;;;;;;5034272;28;20063;-54
2022/09/15 01:13:00;;;;;;;51.10;36.00;;;13.60;99.90;;;;;;5033361;28;20069;-53
2022/09/15 01:15:52;;;;;;;50.10;35.88;;;13.50;99.90;;;;;;5034558;28;20022;-54
2022/09/15 01:18:29;;;;;;;46.08;35.55;;;13.50;99.90;;;;;;5034319;28;20029;-54
2022/09/15 01:21:11;;;;;;;51.15;36.05;;;13.50;99.90;;;;;;5033484;28;20021;-54
2022/09/15 01:24:04;;;;;;;49.95;34.58;;;13.60;99.90;;;;;;5034663;28;20101;-54
2022/09/15 01:26:59;;;;;;;45.30;31.95;;;13.70;99.90;;;;;;5034755;28;20021;-54
2022/09/15 01:30:07;;;;;;;44.92;32.97;;;13.60;99.90;;;;;;5034778;28;20053;-54
2022/09/15 01:33:09;;;;;;;43.88;32.33;;;13.70;99.90;;;;;;4973303;28;20039;-54
2022/09/15 01:35:42;;;;;;;51.08;33.95;;;13.70;99.90;;;;;;4973113;28;20081;-54
2022/09/15 01:38:15;;;;;;;45.25;33.78;;;13.80;99.90;;;;;;5021825;28;20060;-54
2022/09/15 01:40:57;;;;;;;45.65;34.78;;;13.80;99.90;;;;;;5034564;28;20470;-54
2022/09/15 01:43:26;;;;;;;49.80;33.95;;;13.80;99.90;;;;;;5034025;28;20033;-54
2022/09/15 01:45:52;;;;;;;45.33;33.60;;;13.90;99.90;;;;;;5034321;28;20061;-54
2022/09/15 01:48:24;;;;;;;46.53;34.58;;;13.90;99.90;;;;;;5034576;28;20040;-54
2022/09/15 01:50:58;;;;;;;48.75;34.70;;;14.00;99.90;;;;;;5033890;28;20017;-54
2022/09/15 01:53:24;;;;;;;49.35;35.30;;;14.10;99.90;;;;;;5033908;28;20120;-55
2022/09/15 01:55:56;;;;;;;44.40;34.30;;;14.10;99.90;;;;;;5033893;28;20156;-54
2022/09/15 01:58:22;;;;;;;46.47;33.63;;;14.20;99.90;;;;;;5034412;28;20033;-54
2022/09/15 02:01:02;;;;;;;43.15;32.83;;;14.20;99.90;;;;;;5033623;28;20053;-55
2022/09/15 02:03:39;;;;;;;44.50;34.47;;;14.30;99.90;;;;;;5034390;28;20528;-55
2022/09/15 02:06:43;;;;;;;50.78;36.33;;;14.30;99.90;;;;;;5033415;28;20060;-54
2022/09/15 02:09:20;;;;;;;50.50;35.90;;;14.30;99.90;;;;;;5001019;28;20033;-54
2022/09/15 02:11:55;;;;;;;52.53;37.80;;;14.20;99.90;;;;;;5033678;28;20030;-54
2022/09/15 02:14:42;;;;;;;51.58;37.92;;;14.30;99.90;;;;;;5033365;28;20017;-54
2022/09/15 02:17:14;;;;;;;50.47;37.20;;;14.40;99.90;;;;;;5033650;28;20057;-53
2022/09/15 02:19:44;;;;;;;51.55;36.67;;;14.40;99.90;;;;;;5033709;28;20029;-54
2022/09/15 02:22:33;;;;;;;47.20;35.75;;;14.50;99.90;;;;;;5032921;28;20595;-54
2022/09/15 02:25:08;;;;;;;46.45;35.25;;;14.50;99.90;;;;;;5033171;28;20033;-55
2022/09/15 02:27:43;;;;;;;48.63;34.95;;;14.60;99.90;;;;;;5033199;28;20538;-54
2022/09/15 02:30:11;;;;;;;47.45;34.08;;;14.60;99.90;;;;;;5033470;28;20036;-54
2022/09/15 02:32:41;;;;;;;45.88;35.33;;;14.60;99.90;;;;;;5032501;28;20079;-54
2022/09/15 02:35:08;;;;;;;44.50;33.00;;;14.60;99.90;;;;;;5033217;28;20341;-54
2022/09/15 02:37:36;;;;;;;47.28;34.88;;;14.60;99.90;;;;;;5033241;28;20497;-54
2022/09/15 02:40:03;;;;;;;46.10;34.63;;;14.60;99.90;;;;;;5034021;28;20092;-54
2022/09/15 02:42:30;;;;;;;45.83;33.75;;;14.60;99.90;;;;;;5033244;28;20068;-54
2022/09/15 02:44:58;;;;;;;49.25;32.75;;;14.60;99.90;;;;;;5033273;28;20033;-54
2022/09/15 02:47:24;;;;;;;43.70;30.85;;;14.70;99.90;;;;;;5033409;28;20113;-54
2022/09/15 02:49:50;;;;;;;42.00;31.13;;;14.70;99.90;;;;;;5033558;28;20442;-55
2022/09/15 02:52:15;;;;;;;40.63;30.33;;;14.80;99.90;;;;;;5032995;28;20408;-55
2022/09/15 02:54:41;;;;;;;36.72;28.98;;;14.80;99.90;;;;;;5033074;28;20025;-55
2022/09/15 02:57:06;;;;;;;39.75;27.70;;;14.70;99.90;;;;;;5033163;28;20076;-54
2022/09/15 03:02:18;;;;;;;43.63;28.92;;;14.60;99.90;;;;;;5032833;28;20100;-53
2022/09/15 03:04:48;;;;;;;39.28;28.08;;;14.60;99.90;;;;;;5033701;28;20112;-54
2022/09/15 03:07:14;;;;;;;36.47;29.00;;;14.60;99.90;;;;;;5032440;28;20121;-54
2022/09/15 03:09:40;;;;;;;41.17;30.02;;;14.60;99.90;;;;;;5032901;28;20037;-54
2022/09/15 03:12:06;;;;;;;40.42;30.60;;;14.60;99.90;;;;;;5032802;28;20026;-54
2022/09/15 03:14:32;;;;;;;37.75;30.10;;;14.70;99.90;;;;;;5032611;28;20025;-54
2022/09/15 03:16:59;;;;;;;39.50;30.48;;;14.70;99.90;;;;;;5031367;28;20025;-54
2022/09/15 03:19:27;;;;;;;39.58;30.13;;;14.70;99.90;;;;;;5033319;28;20022;-54
2022/09/15 03:21:53;;;;;;;44.25;31.95;;;14.70;99.90;;;;;;5033030;28;20037;-54
2022/09/15 03:24:19;;;;;;;43.88;32.72;;;14.70;99.90;;;;;;5032701;28;20033;-54
2022/09/15 03:26:45;;;;;;;45.03;30.83;;;14.70;99.90;;;;;;5032599;28;20052;-54
2022/09/15 03:29:11;;;;;;;44.53;32.90;;;14.80;99.90;;;;;;5032786;28;20529;-55
2022/09/15 03:31:37;;;;;;;45.42;32.63;;;14.70;99.90;;;;;;5032922;28;20029;-54
2022/09/15 03:34:03;;;;;;;44.10;32.17;;;14.80;99.90;;;;;;5033898;28;20032;-53
2022/09/15 03:36:29;;;;;;;42.72;33.00;;;14.70;99.90;;;;;;5037048;28;20029;-53
2022/09/15 03:38:58;;;;;;;43.40;32.70;;;14.70;99.90;;;;;;5036974;28;20282;-53
2022/09/15 03:41:26;;;;;;;46.33;32.47;;;14.70;99.90;;;;;;5036192;28;20060;-54
2022/09/15 03:43:52;;;;;;;45.53;34.33;;;14.60;99.90;;;;;;5036236;28;20151;-54
2022/09/15 03:46:18;;;;;;;43.22;32.47;;;14.70;99.90;;;;;;5035572;28;20038;-53
2022/09/15 03:48:44;;;;;;;43.60;33.47;;;14.60;99.90;;;;;;5037066;28;20241;-54
2022/09/15 03:51:10;;;;;;;48.47;34.50;;;14.50;99.90;;;;;;5036529;28;20022;-54
2022/09/15 03:53:38;;;;;;;47.53;35.47;;;14.50;99.90;;;;;;5036365;28;20034;-54
2022/09/15 03:56:23;;;;;;;47.70;34.30;;;14.50;99.90;;;;;;5036181;28;20021;-54
2022/09/15 03:58:50;;;;;;;49.33;34.72;;;14.50;99.90;;;;;;5036208;28;20029;-53
2022/09/15 04:01:17;;;;;;;48.70;34.35;;;14.50;99.90;;;;;;5035776;28;20068;-54
2022/09/15 04:03:43;;;;;;;54.05;34.30;;;14.40;99.90;;;;;;5036302;28;20021;-54
2022/09/15 04:06:12;;;;;;;46.40;35.20;;;14.50;99.90;;;;;;5035824;28;20032;-54
2022/09/15 04:08:38;;;;;;;47.78;34.58;;;14.60;99.90;;;;;;5036139;28;20029;-54
2022/09/15 04:11:05;;;;;;;45.90;33.63;;;14.50;99.90;;;;;;5035954;28;20496;-54
2022/09/15 04:13:31;;;;;;;52.30;35.50;;;14.60;99.90;;;;;;5036131;28;20029;-54
2022/09/15 04:16:02;;;;;;;43.47;33.58;;;14.60;99.90;;;;;;5035786;28;20026;-54
2022/09/15 04:18:29;;;;;;;46.30;34.50;;;14.40;99.90;;;;;;5036721;28;20029;-54
2022/09/15 04:20:59;;;;;;;41.03;32.72;;;14.40;99.90;;;;;;5035941;28;20032;-54
2022/09/15 04:23:25;;;;;;;43.10;33.25;;;14.30;99.90;;;;;;5035491;28;20025;-55
2022/09/15 04:25:59;;;;;;;47.00;33.50;;;14.30;99.90;;;;;;5035659;28;20025;-52
2022/09/15 04:28:26;;;;;;;46.28;33.58;;;14.20;99.90;;;;;;5035521;28;20390;-52
2022/09/15 04:31:00;;;;;;;46.63;33.78;;;14.20;99.90;;;;;;5035459;28;20710;-52
2022/09/15 04:33:26;;;;;;;42.88;33.40;;;14.30;99.90;;;;;;5035431;28;20033;-52
2022/09/15 04:36:01;;;;;;;50.75;35.35;;;14.30;99.90;;;;;;5035469;28;20389;-52
2022/09/15 04:38:27;;;;;;;48.47;34.80;;;14.30;99.90;;;;;;5036342;28;20029;-52
2022/09/15 04:40:54;;;;;;;43.35;34.08;;;14.30;99.90;;;;;;5035240;28;20029;-52
2022/09/15 04:43:20;;;;;;;45.35;32.95;;;14.30;99.90;;;;;;5035826;28;20041;-52
2022/09/15 04:45:46;;;;;;;43.17;33.65;;;14.30;99.90;;;;;;5034207;28;20034;-52
2022/09/15 04:48:11;;;;;;;44.45;33.40;;;14.30;99.90;;;;;;5035304;28;20115;-52
2022/09/15 04:50:39;;;;;;;48.25;34.83;;;14.30;99.90;;;;;;5035324;28;20111;-52
2022/09/15 04:53:05;;;;;;;47.65;36.42;;;14.30;99.90;;;;;;5035006;28;20385;-52
2022/09/15 04:55:35;;;;;;;51.60;37.15;;;14.40;99.90;;;;;;5035163;28;20417;-52
2022/09/15 04:58:01;;;;;;;48.25;37.38;;;14.40;99.90;;;;;;5034950;28;20026;-52
2022/09/15 05:00:28;;;;;;;50.45;37.47;;;14.30;99.90;;;;;;5035470;28;20022;-52
2022/09/15 05:02:53;;;;;;;50.28;38.00;;;14.20;99.90;;;;;;5034632;28;20041;-52
2022/09/15 05:05:19;;;;;;;48.70;37.83;;;14.20;99.90;;;;;;5034748;28;20029;-52
2022/09/15 05:07:48;;;;;;;46.85;37.17;;;14.10;99.90;;;;;;5035110;28;20508;-52
2022/09/15 05:10:14;;;;;;;49.35;38.35;;;14.00;99.90;;;;;;5034727;28;20498;-52
2022/09/15 05:12:40;;;;;;;49.20;37.22;;;14.00;99.90;;;;;;5034981;28;20033;-54
2022/09/15 05:15:07;;;;;;;51.33;37.92;;;13.90;99.90;;;;;;5034516;28;20025;-52
2022/09/15 05:17:32;;;;;;;51.25;37.08;;;14.00;99.90;;;;;;5034643;28;20025;-53
2022/09/15 05:19:59;;;;;;;52.20;36.92;;;14.00;99.90;;;;;;5035191;28;20054;-53
2022/09/15 05:22:25;;;;;;;51.38;37.75;;;14.00;99.90;;;;;;5034598;28;20034;-54
2022/09/15 05:24:51;;;;;;;51.20;36.80;;;14.00;99.90;;;;;;5034630;28;20108;-54
2022/09/15 05:27:17;;;;;;;47.40;35.35;;;14.10;99.90;;;;;;5034498;28;20076;-54
2022/09/15 05:29:45;;;;;;;47.08;35.50;;;14.20;99.90;;;;;;5035322;28;20124;-54
2022/09/15 05:32:11;;;;;;;42.03;35.03;;;14.30;99.90;;;;;;5034649;28;20036;-54
2022/09/15 05:34:37;;;;;;;44.17;33.88;;;14.40;99.90;;;;;;5034145;28;20026;-54
2022/09/15 05:37:02;;;;;;;45.30;33.17;;;14.40;99.90;;;;;;5034380;28;20104;-54
2022/09/15 05:39:28;;;;;;;43.00;32.13;;;14.40;99.90;;;;;;5034421;28;20273;-54
2022/09/15 05:41:54;;;;;;;49.63;33.47;;;14.40;99.90;;;;;;5034409;28;20528;-54
2022/09/15 05:44:22;;;;;;;44.80;32.40;;;14.40;99.90;;;;;;5034141;28;20147;-54
2022/09/15 05:46:48;;;;;;;49.60;32.45;;;14.40;99.90;;;;;;5034348;28;20516;-54
2022/09/15 05:49:14;;;;;;;41.75;32.53;;;14.40;99.90;;;;;;5037329;28;20092;-54
2022/09/15 05:51:40;;;;;;;41.80;32.15;;;14.40;99.90;;;;;;5049079;28;20036;-52
2022/09/15 05:54:06;;;;;;;44.70;32.33;;;14.40;99.90;;;;;;5052744;28;20025;-53
2022/09/15 05:56:32;;;;;;;48.63;32.45;;;14.40;99.90;;;;;;5050201;28;20031;-53
2022/09/15 05:58:57;;;;;;;42.70;33.50;;;14.40;99.90;;;;;;5049526;28;20492;-53
2022/09/15 06:01:28;;;;;;;49.55;33.97;;;14.40;99.90;;;;;;5043849;28;20041;-52
2022/09/15 06:03:55;;;;;;;46.13;32.97;;;14.50;99.90;;;;;;5052759;28;20440;-52
2022/09/15 06:06:22;;;;;;;47.70;32.78;;;14.50;99.90;;;;;;5052018;28;20108;-52
2022/09/15 06:08:49;;;;;;;38.65;30.80;;;14.50;99.90;;;;;;5042786;28;20033;-52
2022/09/15 06:11:17;;;;;;;44.38;31.70;;;14.60;99.90;;;;;;5032897;28;20044;-52
2022/09/15 06:13:44;;;;;;;40.38;29.33;;;14.60;99.90;;;;;;5030543;28;20102;-52
2022/09/15 06:16:17;;;;;;;43.10;29.55;;;14.60;99.90;;;;;;5033964;28;20049;-53
2022/09/15 06:18:42;;;;;;;39.72;29.60;;;14.80;99.90;;;;;;5037704;28;20066;-52
2022/09/15 06:21:17;;;;;;;39.83;28.02;;;14.90;99.90;;;;;;5041533;28;20120;-52
2022/09/15 06:23:43;;;;;;;37.75;28.17;;;14.90;99.90;;;;;;5044975;28;20132;-52
2022/09/15 06:26:12;;;;;;;38.08;28.15;;;15.00;99.90;;;;;;5040973;28;20572;-53
2022/09/15 06:28:39;;;;;;;34.20;26.27;;;15.20;99.90;;;;;;5040420;28;20036;-54
2022/09/15 06:31:10;;;;;;;37.65;26.17;;;15.30;99.90;;;;;;5036854;28;20035;-53
2022/09/15 06:33:36;;;;;;;34.60;26.13;;;15.20;99.90;;;;;;5034589;28;20554;-53
2022/09/15 06:36:02;;;;;;;43.95;27.25;;;15.30;99.90;;;;;;5034987;28;20028;-53
2022/09/15 06:38:28;;;;;;;33.22;26.58;;;15.40;99.90;;;;;;5037278;28;20036;-53
2022/09/15 06:40:58;;;;;;;33.35;24.67;;;15.40;99.90;;;;;;5036938;28;20034;-54
2022/09/15 06:43:24;;;;;;;29.83;24.92;;;15.30;99.90;;;;;;5036000;28;20056;-54
2022/09/15 06:45:51;;;;;;;32.00;24.50;;;15.40;99.90;;;;;;5043886;28;20719;-54
2022/09/15 06:48:19;;;;;;;33.88;23.83;;;15.50;99.90;;;;;;5042475;28;20035;-54
2022/09/15 06:50:51;;;;;;;36.65;24.67;;;15.60;99.90;;;;;;5039275;28;20630;-54
2022/09/15 06:53:17;;;;;;;32.50;24.75;;;15.70;99.90;;;;;;5036588;28;20095;-54
2022/09/15 06:55:42;;;;;;;33.28;24.90;;;15.80;99.90;;;;;;5040527;28;20064;-53
2022/09/15 06:58:08;;;;;;;33.60;23.98;;;15.80;99.90;;;;;;5041907;28;20103;-53
2022/09/15 07:00:33;;;;;;;26.70;22.83;;;15.80;99.90;;;;;;5038784;28;20406;-54
2022/09/15 07:02:59;;;;;;;27.95;22.92;;;15.70;99.90;;;;;;5037042;28;20032;-54
2022/09/15 07:05:25;;;;;;;31.33;23.20;;;15.80;99.90;;;;;;5030089;28;20028;-52
2022/09/15 07:07:51;;;;;;;33.38;22.58;;;16.00;99.90;;;;;;5036869;28;20061;-52
2022/09/15 07:10:16;;;;;;;29.42;21.50;;;16.10;99.90;;;;;;5042176;28;20029;-52
2022/09/15 07:12:42;;;;;;;28.90;21.10;;;16.20;99.90;;;;;;5038069;28;20093;-52
2022/09/15 07:15:08;;;;;;;24.83;20.45;;;16.30;99.90;;;;;;5037785;28;20114;-52
2022/09/15 07:17:36;;;;;;;28.55;20.20;;;16.50;99.90;;;;;;5037828;28;20033;-52
2022/09/15 07:20:02;;;;;;;28.83;18.90;;;16.70;99.90;;;;;;5041643;28;20711;-52
2022/09/15 07:22:27;;;;;;;28.30;18.25;;;16.80;99.90;;;;;;5040847;28;20035;-52
2022/09/15 07:24:53;;;;;;;24.67;18.30;;;16.90;99.90;;;;;;5035609;28;20121;-54
2022/09/15 07:27:21;;;;;;;23.60;17.83;;;17.00;99.90;;;;;;5033979;28;20485;-54
2022/09/15 07:29:46;;;;;;;21.55;16.77;;;17.20;99.90;;;;;;5030704;28;20382;-55
2022/09/15 07:32:12;;;;;;;25.00;16.38;;;17.40;99.90;;;;;;5035069;28;20025;-55
2022/09/15 07:34:38;;;;;;;25.65;16.23;;;17.50;99.90;;;;;;5038712;28;20105;-55
2022/09/15 07:37:03;;;;;;;23.88;16.10;;;17.50;99.90;;;;;;5038466;28;20070;-55
2022/09/15 07:39:29;;;;;;;20.92;15.43;;;17.50;99.90;;;;;;5034855;28;20035;-55
2022/09/15 07:41:55;;;;;;;20.15;15.52;;;17.40;99.90;;;;;;5035762;28;20036;-55
2022/09/15 07:44:21;;;;;;;23.85;16.30;;;17.30;99.90;;;;;;5034188;28;20460;-54
2022/09/15 07:46:46;;;;;;;22.40;16.65;;;17.40;99.90;;;;;;5041028;28;20028;-54
2022/09/15 07:49:12;;;;;;;23.05;15.70;;;17.30;99.90;;;;;;5034949;28;20171;-54
2022/09/15 07:51:38;;;;;;;19.52;15.43;;;17.20;99.90;;;;;;5042899;28;20128;-54
2022/09/15 07:54:03;;;;;;;20.48;15.25;;;17.10;99.90;;;;;;5038813;28;20110;-55
2022/09/15 07:56:29;;;;;;;19.60;15.60;;;17.20;99.90;;;;;;5040271;28;20017;-52
2022/09/15 07:58:56;;;;;;;21.35;15.20;;;17.20;99.90;;;;;;5033061;28;20074;-52
2022/09/15 08:01:21;;;;;;;19.52;14.88;;;17.20;99.90;;;;;;5034052;28;20059;-52
2022/09/15 08:03:49;;;;;;;27.70;15.80;;;17.30;99.90;;;;;;5037550;28;20021;-52
2022/09/15 08:06:18;;;;;;;21.73;15.02;;;17.40;99.90;;;;;;5041063;28;20084;-52
2022/09/15 08:08:44;;;;;;;18.92;13.88;;;17.50;99.90;;;;;;5039904;28;20070;-52
2022/09/15 08:11:15;;;;;;;18.27;12.38;;;17.70;99.90;;;;;;5041709;28;20482;-52
2022/09/15 08:13:41;;;;;;;22.95;12.55;;;17.80;99.90;;;;;;5035648;28;20032;-52
2022/09/15 08:16:08;;;;;;;17.27;11.25;;;17.90;99.90;;;;;;5038326;28;20089;-52
2022/09/15 08:18:35;;;;;;;22.92;12.10;;;18.10;99.90;;;;;;5037673;28;20113;-52
2022/09/15 08:21:05;;;;;;;14.73;11.50;;;18.20;99.90;;;;;;5045425;28;20049;-52
2022/09/15 08:23:31;;;;;;;17.65;10.57;;;18.40;99.90;;;;;;5045903;28;20037;-52
2022/09/15 08:25:56;;;;;;;19.33;11.18;;;18.50;99.90;;;;;;5044412;28;21469;-52
2022/09/15 08:28:22;;;;;;;13.85;9.85;;;18.60;99.90;;;;;;5039398;28;20037;-52
2022/09/15 08:30:48;;;;;;;16.50;9.70;;;18.60;99.90;;;;;;5057237;28;20029;-54
2022/09/15 08:33:13;;;;;;;16.75;9.68;;;18.80;99.90;;;;;;5041070;28;20064;-55
2022/09/15 08:35:39;;;;;;;15.20;9.13;;;18.90;99.90;;;;;;5033952;28;20033;-55
2022/09/15 08:38:04;;;;;;;13.00;9.02;;;19.00;99.90;;;;;;5030010;28;20025;-55
2022/09/15 08:40:37;;;;;;;15.02;8.93;;;19.10;99.90;;;;;;5037216;28;20116;-55
2022/09/15 08:43:17;;;;;;;12.23;8.48;;;19.10;99.90;;;;;;5039314;28;20421;-55
2022/09/15 08:45:54;;;;;;;13.50;8.18;;;19.10;99.90;;;;;;5037435;28;20086;-55
2022/09/15 08:48:26;;;;;;;13.55;8.30;;;19.50;99.90;;;;;;5040764;28;20047;-55
2022/09/15 08:50:57;;;;;;;10.13;7.25;;;19.60;99.90;;;;;;5039923;28;20029;-55
2022/09/15 08:53:31;;;;;;;15.73;7.70;;;19.70;99.90;;;;;;5041883;28;20036;-55
2022/09/15 08:56:00;;;;;;;11.85;6.95;;;19.90;99.90;;;;;;5043093;28;20021;-55
2022/09/15 08:58:30;;;;;;;10.55;6.60;;;19.80;99.90;;;;;;5043109;28;20025;-55
2022/09/15 09:01:33;;;;;;;13.48;6.80;;;20.00;99.90;;;;;;5043002;28;20044;-55
2022/09/15 09:04:29;;;;;;;10.70;6.80;;;20.10;99.90;;;;;;5044397;28;20485;-55
2022/09/15 09:07:14;;;;;;;13.68;6.90;;;20.10;99.90;;;;;;5044061;28;20428;-55
2022/09/15 09:10:00;;;;;;;13.82;6.50;;;20.40;99.90;;;;;;5039222;28;20554;-55
2022/09/15 09:12:35;;;;;;;11.90;5.97;;;20.50;99.90;;;;;;5039688;28;20721;-55
2022/09/15 09:15:25;;;;;;;13.27;7.38;;;20.50;99.90;;;;;;5044675;28;20508;-55
2022/09/15 09:18:18;;;;;;;10.35;6.57;;;20.60;99.90;;;;;;5041305;28;20034;-55
2022/09/15 09:21:02;;;;;;;9.95;5.45;;;21.10;99.90;;;;;;5043023;28;20742;-55
2022/09/15 09:23:31;;;;;;;7.78;4.90;;;21.60;99.90;;;;;;5045499;28;20402;-55
2022/09/15 09:25:57;;;;;;;9.95;4.25;;;21.80;99.90;;;;;;5041439;28;20036;-55
2022/09/15 09:28:37;;;;;;;9.18;4.50;;;22.10;99.90;;;;;;5041243;28;20029;-55
2022/09/15 09:31:06;;;;;;;12.50;4.82;;;22.70;99.90;;;;;;5040066;28;20111;-55
2022/09/15 09:33:35;;;;;;;8.38;4.10;;;23.20;99.90;;;;;;5038219;28;20036;-55
2022/09/15 09:36:03;;;;;;;7.65;3.42;;;23.70;99.90;;;;;;5037026;28;20136;-55
2022/09/15 09:38:38;;;;;;;11.38;3.60;;;24.20;99.90;;;;;;5039606;28;20173;-55
2022/09/15 09:41:24;;;;;;;6.35;3.20;;;24.30;99.90;;;;;;5039836;28;20498;-55
2022/09/15 09:43:52;;;;;;;8.95;3.63;;;24.40;99.90;;;;;;5039474;28;20455;-55
2022/09/15 09:46:19;;;;;;;6.43;2.88;;;23.60;99.90;;;;;;5038739;28;20033;-55
2022/09/15 09:48:57;;;;;;;6.80;3.35;;;23.00;99.90;;;;;;5042904;28;20076;-55
2022/09/15 09:51:30;;;;;;;6.68;3.80;;;22.50;99.90;;;;;;5040670;28;20036;-55
2022/09/15 09:54:04;;;;;;;10.15;4.43;;;22.50;99.90;;;;;;5040527;28;20032;-55
2022/09/15 09:56:29;;;;;;;4.57;2.55;;;22.70;99.90;;;;;;5045379;28;20028;-55
2022/09/15 09:58:55;;;;;;;8.55;1.90;;;23.10;99.90;;;;;;5035680;28;20021;-55
2022/09/15 10:01:24;;;;;;;4.85;1.80;;;23.10;99.90;;;;;;5041418;28;20098;-55
2022/09/15 10:04:16;;;;;;;4.47;1.50;;;23.10;99.90;;;;;;5040555;28;20037;-55
2022/09/15 10:06:41;;;;;;;2.92;1.40;;;23.40;99.90;;;;;;5033154;28;20120;-55
2022/09/15 10:09:18;;;;;;;4.93;1.52;;;23.50;99.90;;;;;;5033142;28;20576;-55
2022/09/15 10:11:52;;;;;;;4.05;1.73;;;23.70;99.90;;;;;;5039191;28;20116;-55
2022/09/15 10:14:36;;;;;;;5.95;1.92;;;23.90;99.90;;;;;;5041432;28;20487;-55
2022/09/15 10:17:04;;;;;;;5.57;1.60;;;24.20;99.90;;;;;;5040145;28;20040;-55
2022/09/15 10:19:33;;;;;;;4.18;1.58;;;24.30;99.90;;;;;;5031732;28;20122;-55
2022/09/15 10:22:00;;;;;;;2.88;1.50;;;23.70;99.90;;;;;;5028424;28;20041;-55
2022/09/15 10:24:26;;;;;;;4.60;2.17;;;22.80;99.90;;;;;;5036947;28;20037;-56
2022/09/15 10:27:04;;;;;;;4.47;1.50;;;23.50;99.90;;;;;;5045732;28;20048;-56
2022/09/15 10:29:37;;;;;;;4.35;1.50;;;24.30;99.90;;;;;;5035160;28;20437;-56
2022/09/15 10:32:21;;;;;;;6.40;1.33;;;24.30;99.90;;;;;;5041393;28;20036;-56
2022/09/15 10:34:47;;;;;;;4.63;1.83;;;23.90;99.90;;;;;;5039510;28;20517;-56
2022/09/15 10:37:30;;;;;;;8.48;1.75;;;23.60;99.90;;;;;;5038489;28;20788;-56
2022/09/15 10:39:59;;;;;;;5.03;1.45;;;23.70;99.90;;;;;;5034533;28;20455;-56
2022/09/15 10:42:50;;;;;;;5.07;1.98;;;24.00;99.90;;;;;;5041613;28;20040;-56
2022/09/15 10:45:17;;;;;;;4.95;1.25;;;24.50;99.90;;;;;;5040776;28;20036;-56
2022/09/15 10:47:43;;;;;;;5.95;1.20;;;24.50;99.90;;;;;;5042760;28;20048;-56
2022/09/15 10:50:17;;;;;;;4.28;1.30;;;24.40;99.90;;;;;;5043260;28;20021;-53
2022/09/15 10:53:02;;;;;;;7.43;1.40;;;24.40;99.90;;;;;;5042740;28;20505;-53
2022/09/15 10:55:40;;;;;;;9.60;1.40;;;23.30;99.90;;;;;;5042183;28;20407;-53
2022/09/15 10:58:21;;;;;;;8.25;1.48;;;22.80;99.90;;;;;;5036209;28;20021;-53
2022/09/15 11:00:59;;;;;;;4.78;1.50;;;22.70;99.90;;;;;;5041186;28;20076;-53
2022/09/15 11:03:46;;;;;;;6.10;1.40;;;23.40;99.90;;;;;;5044049;28;20150;-53
2022/09/15 11:06:20;;;;;;;9.60;1.38;;;23.90;99.90;;;;;;5044500;28;20076;-53
2022/09/15 11:08:58;;;;;;;4.15;1.58;;;23.50;99.90;;;;;;5034887;28;20053;-53
2022/09/15 11:11:42;;;;;;;3.55;1.83;;;23.00;99.90;;;;;;5049414;28;20025;-54
2022/09/15 11:14:27;;;;;;;5.10;1.75;;;22.60;99.90;;;;;;5030837;28;20037;-53
2022/09/15 11:17:14;;;;;;;10.50;3.00;;;22.20;99.90;;;;;;5032038;28;20650;-53
2022/09/15 11:19:49;;;;;;;5.93;1.77;;;22.10;99.90;;;;;;5037720;28;20216;-53
2022/09/15 11:22:26;;;;;;;5.75;1.83;;;22.10;99.90;;;;;;5041955;28;20110;-55
2022/09/15 11:24:57;;;;;;;5.28;1.40;;;22.00;99.90;;;;;;5038906;28;20926;-56
2022/09/15 11:27:28;;;;;;;5.95;1.30;;;21.50;99.90;;;;;;5038357;28;20386;-56
2022/09/15 11:30:13;;;;;;;6.13;1.30;;;20.90;99.90;;;;;;5035022;28;20513;-56
2022/09/15 11:32:55;;;;;;;7.85;1.15;;;20.70;99.90;;;;;;5034988;28;20348;-56
2022/09/15 11:35:25;;;;;;;;;;;20.70;99.90;;;;;;5031535;28;20033;-56
2022/09/15 11:37:53;;;;;;;7.90;1.27;;;20.70;99.90;;;;;;5040872;28;19912;-57
2022/09/15 11:40:56;;;;;;;4.72;1.30;;;20.50;99.90;;;;;;5039967;28;20594;-54
2022/09/15 11:43:44;;;;;;;6.35;1.20;;;20.10;99.90;;;;;;5005097;28;20099;-54
2022/09/15 11:46:16;;;;;;;6.53;0.95;;;19.70;99.90;;;;;;5036145;28;20064;-54
2022/09/15 11:49:00;;;;;;;3.55;1.33;;;19.60;99.90;;;;;;5034720;28;20033;-54
2022/09/15 11:51:33;;;;;;;8.40;1.00;;;19.40;99.90;;;;;;5036046;28;20025;-54
2022/09/15 11:54:12;;;;;;;4.72;1.05;;;19.50;99.90;;;;;;5035707;28;20477;-54
2022/09/15 11:56:46;;;;;;;7.13;1.23;;;19.30;99.90;;;;;;5037853;28;20033;-54
2022/09/15 11:59:25;;;;;;;16.05;1.95;;;19.50;99.90;;;;;;5038780;28;20114;-54
2022/09/15 12:01:58;;;;;;;10.43;1.10;;;19.70;99.90;;;;;;5036212;28;20048;-54
2022/09/15 12:04:32;;;;;;;;;;;19.80;99.90;;;;;;5040202;28;20304;-54
2022/09/15 12:07:16;;;;;;;5.70;1.23;;;19.70;99.90;;;;;;5038915;28;19908;-54
2022/09/15 12:09:42;;;;;;;6.53;1.27;;;19.70;99.90;;;;;;5043758;28;21805;-54
2022/09/15 12:12:13;;;;;;;11.68;1.20;;;19.60;99.90;;;;;;5040380;28;20024;-54
2022/09/15 12:14:44;;;;;;;7.00;1.17;;;19.60;99.90;;;;;;5059951;28;20464;-54
2022/09/15 12:17:32;;;;;;;5.93;1.10;;;19.80;99.90;;;;;;5038829;28;20051;-54
2022/09/15 12:20:11;;;;;;;7.30;1.17;;;19.60;99.90;;;;;;5036308;28;20032;-54
2022/09/15 12:22:53;;;;;;;6.53;1.10;;;19.50;99.90;;;;;;5037997;28;20315;-54
2022/09/15 12:25:40;;;;;;;6.07;1.45;;;19.60;99.90;;;;;;5029114;28;20051;-54
2022/09/15 12:28:36;;;;;;;3.22;1.30;;;19.50;99.90;;;;;;5036917;28;20044;-54
2022/09/15 12:31:32;;;;;;;10.05;1.50;;;19.50;99.90;;;;;;5020853;28;20539;-54
2022/09/15 12:34:02;;;;;;;12.65;2.17;;;19.60;99.90;;;;;;5035966;28;20033;-54
2022/09/15 12:36:48;;;;;;;7.15;2.05;;;19.70;99.90;;;;;;5033828;28;20033;-54
2022/09/15 12:39:27;;;;;;;4.95;1.20;;;19.70;99.90;;;;;;5036793;28;20145;-54
2022/09/15 12:42:04;;;;;;;3.83;1.25;;;19.80;99.90;;;;;;5036452;28;20041;-54
2022/09/15 12:44:51;;;;;;;6.55;1.30;;;19.80;99.90;;;;;;5043406;28;20033;-54
2022/09/15 12:47:27;;;;;;;4.53;1.27;;;19.80;99.90;;;;;;5035375;28;20032;-54
2022/09/15 12:49:57;;;;;;;5.85;1.40;;;19.80;99.90;;;;;;5034736;28;20430;-54
2022/09/15 12:52:27;;;;;;;4.60;1.17;;;20.00;99.90;;;;;;5036453;28;20033;-54
2022/09/15 12:54:57;;;;;;;6.72;1.30;;;20.10;99.90;;;;;;5037098;28;20467;-54
2022/09/15 12:57:35;;;;;;;7.95;1.40;;;20.20;99.90;;;;;;5033214;28;20041;-54
2022/09/15 13:00:37;;;;;;;3.50;1.20;;;20.30;99.90;;;;;;5034910;28;20025;-53